Time;durP1;ratioP1;P1;durP2;ratioP2;P2;SDS_P1;SDS_P2;PMS_P1;PMS_P2;Temp;Humidity;BMP_temperature;BMP_pressure;BME280_temperature;BME280_humidity;BME280_pressure;Samples;Min_cycle;Max_cycle;Signal;HPM_P1;HPM_P2
2023/01/18 00:01:14;;;;;;;19.40;10.27;;;1.30;99.90;;;;;;5039472;28;20033;-88
2023/01/18 00:03:41;;;;;;;14.85;9.02;;;1.30;99.90;;;;;;5039622;28;20472;-88
2023/01/18 00:06:08;;;;;;;16.17;9.82;;;1.30;99.90;;;;;;5039554;28;20053;-88
2023/01/18 00:08:37;;;;;;;16.02;10.68;;;1.30;99.90;;;;;;5039253;28;20056;-88
2023/01/18 00:11:15;;;;;;;19.13;10.23;;;1.30;99.90;;;;;;5039134;28;20087;-88
2023/01/18 00:13:42;;;;;;;21.10;10.82;;;1.30;99.90;;;;;;5039256;28;20099;-88
2023/01/18 00:16:11;;;;;;;16.40;9.23;;;1.30;99.90;;;;;;5023256;28;20492;-88
2023/01/18 00:18:37;;;;;;;13.73;9.10;;;1.30;99.90;;;;;;5038971;28;20499;-88
2023/01/18 00:21:06;;;;;;;16.48;9.88;;;1.20;99.90;;;;;;5056542;28;20033;-89
2023/01/18 00:23:32;;;;;;;19.90;9.32;;;1.20;99.90;;;;;;5022966;28;20041;-88
2023/01/18 00:26:02;;;;;;;16.77;9.77;;;1.20;99.90;;;;;;5038702;28;20064;-89
2023/01/18 00:28:28;;;;;;;16.63;9.82;;;1.20;99.90;;;;;;5038704;28;20136;-88
2023/01/18 00:30:54;;;;;;;17.85;10.02;;;1.20;99.90;;;;;;5022053;28;20037;-89
2023/01/18 00:33:20;;;;;;;14.73;9.80;;;1.20;99.90;;;;;;5055267;28;20037;-88
2023/01/18 00:36:02;;;;;;;19.58;10.60;;;1.20;99.90;;;;;;5037016;28;20155;-88
2023/01/18 00:38:29;;;;;;;15.30;9.25;;;1.20;99.90;;;;;;5054913;28;20059;-88
2023/01/18 00:40:55;;;;;;;19.17;10.77;;;1.20;99.90;;;;;;5038199;28;20171;-88
2023/01/18 00:43:39;;;;;;;21.15;10.70;;;1.20;99.90;;;;;;5038013;28;20029;-88
2023/01/18 00:46:19;;;;;;;19.95;10.10;;;1.20;99.90;;;;;;5038589;28;20037;-87
2023/01/18 00:48:45;;;;;;;16.55;9.75;;;1.20;99.90;;;;;;5038478;28;20030;-88
2023/01/18 00:51:14;;;;;;;18.90;10.68;;;1.20;99.90;;;;;;5038179;28;20033;-88
2023/01/18 00:53:43;;;;;;;16.17;9.32;;;1.20;99.90;;;;;;5037963;28;20029;-88
2023/01/18 00:56:11;;;;;;;18.17;10.35;;;1.20;99.90;;;;;;5038002;28;20049;-88
2023/01/18 00:58:36;;;;;;;15.43;9.43;;;1.20;99.90;;;;;;5037614;28;20037;-88
2023/01/18 01:01:06;;;;;;;19.98;10.65;;;1.20;99.90;;;;;;5021722;28;20037;-88
2023/01/18 01:06:45;;;;;;;18.73;9.23;;;1.20;99.90;;;;;;5024766;28;20041;-88
2023/01/18 01:09:20;;;;;;;18.92;9.73;;;1.20;99.90;;;;;;5037714;28;20065;-88
2023/01/18 01:28:23;;;;;;;18.65;9.80;;;1.10;99.90;;;;;;5056022;28;20036;-88
2023/01/18 01:30:49;;;;;;;22.83;10.38;;;1.20;99.90;;;;;;5021285;28;20045;-88
2023/01/18 01:33:22;;;;;;;16.50;9.57;;;1.20;99.90;;;;;;5037907;28;20059;-88
2023/01/18 01:35:50;;;;;;;14.85;8.75;;;1.20;99.90;;;;;;5038234;28;20044;-88
2023/01/18 01:38:16;;;;;;;20.42;9.77;;;1.20;99.90;;;;;;5050799;28;20036;-90
2023/01/18 01:40:42;;;;;;;22.02;10.48;;;1.20;99.90;;;;;;5028419;28;20016;-87
2023/01/18 01:43:16;;;;;;;16.95;9.50;;;1.20;99.90;;;;;;5057360;28;20041;-89
2023/01/18 01:45:51;;;;;;;17.85;10.18;;;1.20;99.90;;;;;;5037860;28;20048;-89
2023/01/18 01:48:17;;;;;;;20.98;10.48;;;1.20;99.90;;;;;;5036874;28;20083;-89
2023/01/18 01:50:43;;;;;;;14.60;8.23;;;1.20;99.90;;;;;;5020986;28;20041;-89
2023/01/18 01:53:10;;;;;;;11.88;7.22;;;1.20;99.90;;;;;;5037208;28;20108;-87
2023/01/18 01:55:38;;;;;;;15.88;9.10;;;1.20;99.90;;;;;;5021112;28;20038;-88
2023/01/18 01:58:24;;;;;;;14.55;8.98;;;1.20;99.90;;;;;;5037756;28;20033;-88
2023/01/18 02:00:52;;;;;;;15.10;9.35;;;1.10;99.90;;;;;;5039982;28;20056;-88
2023/01/18 02:03:18;;;;;;;16.65;9.43;;;1.10;99.90;;;;;;5040083;28;20052;-89
2023/01/18 02:05:49;;;;;;;17.20;9.30;;;1.10;99.90;;;;;;5040336;28;20067;-89
2023/01/18 02:08:21;;;;;;;17.30;10.20;;;1.10;99.90;;;;;;5038444;28;20396;-89
2023/01/18 02:10:47;;;;;;;18.20;9.70;;;1.10;99.90;;;;;;5023917;28;20033;-88
2023/01/18 02:13:14;;;;;;;21.17;10.38;;;1.10;99.90;;;;;;5039857;28;20112;-88
2023/01/18 02:15:58;;;;;;;14.70;9.18;;;1.10;99.90;;;;;;5043669;28;20074;-88
2023/01/18 02:18:54;;;;;;;16.33;9.48;;;1.10;99.90;;;;;;5050318;28;20037;-87
2023/01/18 02:21:38;;;;;;;17.95;9.93;;;1.20;99.90;;;;;;5041938;28;20484;-88
2023/01/18 02:24:48;;;;;;;16.48;9.57;;;1.20;99.90;;;;;;5045461;28;20037;-88
2023/01/18 02:27:42;;;;;;;16.23;9.15;;;1.10;99.90;;;;;;5060505;28;20500;-88
2023/01/18 02:30:33;;;;;;;19.27;10.68;;;1.10;99.90;;;;;;5058672;28;20427;-88
2023/01/18 02:33:11;;;;;;;18.30;9.20;;;1.10;99.90;;;;;;5065251;28;20100;-88
2023/01/18 02:35:55;;;;;;;16.15;9.38;;;1.10;99.90;;;;;;5073754;28;20037;-87
2023/01/18 02:38:44;;;;;;;15.05;8.98;;;1.10;99.90;;;;;;5073580;28;20047;-87
2023/01/18 02:47:08;;;;;;;20.48;10.18;;;1.10;99.90;;;;;;5089865;28;20047;-89
2023/01/18 02:49:34;;;;;;;16.48;9.88;;;1.00;99.90;;;;;;5066745;28;20523;-87
2023/01/18 02:52:07;;;;;;;18.67;10.30;;;1.10;99.90;;;;;;5048598;28;20037;-90
2023/01/18 02:54:47;;;;;;;18.83;9.02;;;1.00;99.90;;;;;;5041110;28;20029;-88
2023/01/18 02:57:16;;;;;;;19.10;10.00;;;1.10;99.90;;;;;;5057542;28;20041;-88
2023/01/18 02:59:49;;;;;;;19.00;9.90;;;1.10;99.90;;;;;;5055599;28;20036;-88
2023/01/18 03:02:18;;;;;;;17.85;9.48;;;1.10;99.90;;;;;;5059372;28;20028;-89
2023/01/18 03:04:53;;;;;;;20.55;10.23;;;1.10;99.90;;;;;;5060259;28;20064;-88
2023/01/18 03:07:21;;;;;;;18.17;9.80;;;1.10;99.90;;;;;;5060063;28;20132;-88
2023/01/18 03:09:47;;;;;;;17.67;10.13;;;1.10;99.90;;;;;;5060415;28;20033;-88
2023/01/18 03:12:45;;;;;;;16.30;9.40;;;1.10;99.90;;;;;;5082767;28;20055;-91
2023/01/18 03:15:11;;;;;;;15.23;10.15;;;1.10;99.90;;;;;;5061388;28;20052;-91
2023/01/18 03:18:22;;;;;;;16.02;9.50;;;1.10;99.90;;;;;;5084132;28;20028;-89
2023/01/18 03:20:53;;;;;;;19.27;10.00;;;1.10;99.90;;;;;;5080958;28;20040;-89
2023/01/18 03:23:37;;;;;;;15.65;9.63;;;1.10;99.90;;;;;;5083895;28;20017;-88
2023/01/18 03:26:15;;;;;;;16.92;9.85;;;1.10;99.90;;;;;;5082779;28;20024;-88
2023/01/18 03:34:57;;;;;;;17.02;10.48;;;1.00;99.90;;;;;;5079009;28;20550;-87
2023/01/18 03:37:29;;;;;;;14.98;10.05;;;0.90;99.90;;;;;;5059124;28;20051;-88
2023/01/18 03:40:07;;;;;;;15.63;8.98;;;0.90;99.90;;;;;;5060078;28;20041;-88
2023/01/18 03:42:43;;;;;;;17.17;10.10;;;0.90;99.90;;;;;;5077453;28;20031;-88
2023/01/18 03:45:12;;;;;;;18.73;9.65;;;0.80;99.90;;;;;;5059546;28;20126;-87
2023/01/18 03:47:38;;;;;;;19.48;9.60;;;0.90;99.90;;;;;;5077262;28;20039;-87
2023/01/18 03:50:04;;;;;;;19.65;9.52;;;0.90;99.90;;;;;;5042920;28;20120;-88
2023/01/18 03:52:30;;;;;;;15.90;9.52;;;0.90;99.90;;;;;;5059491;28;20028;-88
2023/01/18 03:55:21;;;;;;;16.15;10.43;;;0.90;99.90;;;;;;5059341;28;20472;-88
2023/01/18 03:57:52;;;;;;;19.58;9.50;;;0.90;99.90;;;;;;5059145;28;20033;-88
2023/01/18 04:00:18;;;;;;;;;;;0.90;99.90;;;;;;5047420;28;20052;-88
2023/01/18 04:02:45;;;;;;;18.75;10.10;;;0.80;99.90;;;;;;5051762;28;19895;-89
2023/01/18 04:05:12;;;;;;;18.17;9.52;;;0.80;99.90;;;;;;5046842;28;20021;-89
2023/01/18 04:07:37;;;;;;;16.50;9.02;;;0.90;99.90;;;;;;5080158;28;20064;-89
2023/01/18 04:10:03;;;;;;;15.77;9.60;;;0.90;99.90;;;;;;5023176;28;20095;-88
2023/01/18 04:12:30;;;;;;;17.10;9.73;;;0.80;99.90;;;;;;5037993;28;20128;-88
2023/01/18 04:14:56;;;;;;;23.80;10.88;;;0.90;99.90;;;;;;5022665;28;20064;-88
2023/01/18 04:17:21;;;;;;;17.27;10.85;;;0.80;99.90;;;;;;5022694;28;20071;-88
2023/01/18 04:19:47;;;;;;;18.42;9.48;;;0.90;99.90;;;;;;5022335;28;20095;-88
2023/01/18 04:22:13;;;;;;;16.40;8.82;;;0.90;99.90;;;;;;5022874;28;20037;-88
2023/01/18 04:24:41;;;;;;;13.75;8.38;;;0.90;99.90;;;;;;5038836;28;20052;-87
2023/01/18 04:27:07;;;;;;;16.45;8.45;;;0.90;99.90;;;;;;5039028;28;20025;-87
2023/01/18 04:29:32;;;;;;;16.92;9.93;;;0.80;99.90;;;;;;5038796;28;20120;-89
2023/01/18 04:32:00;;;;;;;16.25;9.55;;;0.90;99.90;;;;;;5022915;28;20025;-88
2023/01/18 04:34:26;;;;;;;19.52;9.95;;;0.90;99.90;;;;;;5038893;28;20033;-88
2023/01/18 04:36:52;;;;;;;16.70;9.57;;;0.90;99.90;;;;;;5022207;28;20408;-88
2023/01/18 04:39:18;;;;;;;15.55;9.20;;;0.90;99.90;;;;;;5022438;28;20033;-88
2023/01/18 04:41:44;;;;;;;15.48;9.45;;;0.90;99.90;;;;;;5038800;28;20075;-88
2023/01/18 04:44:10;;;;;;;17.70;10.10;;;1.00;99.90;;;;;;5022415;28;20461;-88
2023/01/18 04:46:38;;;;;;;15.13;8.38;;;1.00;99.90;;;;;;5038879;28;20043;-88
2023/01/18 04:49:04;;;;;;;14.07;8.25;;;1.00;99.90;;;;;;5022286;28;20037;-89
2023/01/18 04:51:31;;;;;;;15.57;8.63;;;0.90;99.90;;;;;;5022303;28;20393;-88
2023/01/18 04:53:58;;;;;;;16.02;8.93;;;1.00;99.90;;;;;;5021812;28;20037;-88
2023/01/18 04:56:24;;;;;;;18.15;9.68;;;1.00;99.90;;;;;;5021934;28;20047;-89
2023/01/18 04:58:53;;;;;;;14.73;9.02;;;1.00;99.90;;;;;;5038663;28;20396;-89
2023/01/18 05:01:19;;;;;;;17.90;9.40;;;0.90;99.90;;;;;;5041606;28;20040;-88
2023/01/18 05:03:45;;;;;;;12.85;8.50;;;1.00;99.90;;;;;;5076224;28;20070;-89
2023/01/18 05:06:13;;;;;;;15.02;9.18;;;0.90;99.90;;;;;;5058096;28;20473;-87
2023/01/18 05:08:41;;;;;;;20.42;9.82;;;0.90;99.90;;;;;;5057369;28;20033;-88
2023/01/18 05:11:09;;;;;;;17.17;9.02;;;0.90;99.90;;;;;;5057531;28;20024;-88
2023/01/18 05:13:36;;;;;;;15.68;8.52;;;0.90;99.90;;;;;;5057697;28;20068;-89
2023/01/18 05:16:04;;;;;;;18.50;9.35;;;0.90;99.90;;;;;;5057935;28;20071;-88
2023/01/18 05:18:30;;;;;;;15.38;9.13;;;0.90;99.90;;;;;;5058059;28;20029;-88
2023/01/18 05:20:56;;;;;;;15.63;8.73;;;0.90;99.90;;;;;;5058914;28;20044;-89
2023/01/18 05:23:23;;;;;;;15.20;8.57;;;0.90;99.90;;;;;;5057833;28;20025;-89
2023/01/18 05:25:59;;;;;;;16.88;9.35;;;0.90;99.90;;;;;;5075458;28;20040;-88
2023/01/18 05:28:26;;;;;;;16.20;8.85;;;0.90;99.90;;;;;;5057741;28;20024;-87
2023/01/18 05:30:54;;;;;;;16.02;8.75;;;0.90;99.90;;;;;;5057603;28;20040;-89
2023/01/18 05:33:21;;;;;;;16.25;8.43;;;0.90;99.90;;;;;;5057468;28;20044;-89
2023/01/18 05:35:48;;;;;;;15.57;8.95;;;0.90;99.90;;;;;;5057557;28;20044;-89
2023/01/18 05:38:14;;;;;;;17.88;8.82;;;0.90;99.90;;;;;;5043666;28;20036;-88
2023/01/18 05:40:46;;;;;;;19.42;9.40;;;0.90;99.90;;;;;;5056186;28;20402;-89
2023/01/18 05:43:13;;;;;;;14.82;8.68;;;0.90;99.90;;;;;;5069901;28;20033;-89
2023/01/18 05:45:40;;;;;;;19.42;8.13;;;0.90;99.90;;;;;;5043542;28;20028;-88
2023/01/18 05:48:06;;;;;;;14.75;8.73;;;0.80;99.90;;;;;;5057568;28;20032;-89
2023/01/18 05:50:33;;;;;;;15.15;8.70;;;0.90;99.90;;;;;;5041327;28;20058;-88
2023/01/18 05:52:59;;;;;;;20.17;9.43;;;0.90;99.90;;;;;;5040959;28;20033;-88
2023/01/18 05:55:26;;;;;;;17.92;9.57;;;0.90;99.90;;;;;;5040720;28;20045;-89
2023/01/18 05:57:52;;;;;;;17.85;9.38;;;0.80;99.90;;;;;;5056949;28;20161;-91
2023/01/18 06:00:18;;;;;;;16.65;9.10;;;0.90;99.90;;;;;;5034222;28;20061;-88
2023/01/18 06:02:44;;;;;;;16.40;8.95;;;0.90;99.90;;;;;;5037602;28;20046;-88
2023/01/18 06:05:10;;;;;;;18.25;8.10;;;1.00;99.90;;;;;;5038052;28;20063;-88
2023/01/18 06:07:41;;;;;;;16.25;8.50;;;0.90;99.90;;;;;;5021360;28;20029;-88
2023/01/18 06:10:08;;;;;;;27.27;10.27;;;0.90;99.90;;;;;;5040267;28;20481;-89
2023/01/18 06:12:34;;;;;;;14.80;7.80;;;0.90;99.90;;;;;;5022258;28;20037;-89
2023/01/18 06:15:05;;;;;;;12.27;7.63;;;0.90;99.90;;;;;;5021406;28;20104;-89
2023/01/18 06:17:31;;;;;;;16.25;8.50;;;0.90;99.90;;;;;;5023258;28;20432;-88
2023/01/18 06:19:57;;;;;;;17.17;8.98;;;0.80;99.90;;;;;;5001530;28;20431;-87
2023/01/18 06:22:23;;;;;;;16.98;8.65;;;0.80;99.90;;;;;;5017829;28;20030;-89
2023/01/18 06:24:51;;;;;;;17.38;9.10;;;0.80;99.90;;;;;;5001776;28;20128;-87
2023/01/18 06:27:17;;;;;;;15.95;8.70;;;0.80;99.90;;;;;;5008698;28;20041;-87
2023/01/18 06:29:45;;;;;;;14.88;8.43;;;0.90;99.90;;;;;;5040763;28;20020;-89
2023/01/18 06:32:11;;;;;;;18.33;9.43;;;0.90;99.90;;;;;;5024526;28;20021;-88
2023/01/18 06:34:36;;;;;;;14.75;8.48;;;0.90;99.90;;;;;;4989454;28;20045;-88
2023/01/18 06:37:03;;;;;;;15.77;8.55;;;0.90;99.90;;;;;;5005505;28;20044;-89
2023/01/18 06:39:28;;;;;;;14.68;7.93;;;0.90;99.90;;;;;;5022406;28;20575;-88
2023/01/18 06:41:54;;;;;;;16.35;9.40;;;1.00;99.90;;;;;;5006037;28;20128;-88
2023/01/18 06:44:20;;;;;;;16.35;9.75;;;0.90;99.90;;;;;;5021172;28;20033;-88
2023/01/18 06:46:46;;;;;;;18.23;9.68;;;1.00;99.90;;;;;;5005801;28;20049;-87
2023/01/18 06:49:12;;;;;;;15.45;8.68;;;0.90;99.90;;;;;;5037529;28;20018;-87
2023/01/18 06:51:38;;;;;;;15.52;9.18;;;0.90;99.90;;;;;;5044359;28;20033;-86
2023/01/18 06:54:04;;;;;;;18.00;9.80;;;0.90;99.90;;;;;;5028420;28;20029;-88
2023/01/18 06:56:30;;;;;;;13.57;8.65;;;0.90;99.90;;;;;;5028548;28;20101;-88
2023/01/18 06:58:57;;;;;;;17.73;8.75;;;0.90;99.90;;;;;;5044142;28;20032;-88
2023/01/18 07:01:24;;;;;;;15.65;8.35;;;0.90;99.90;;;;;;5042818;28;20116;-89
2023/01/18 07:03:51;;;;;;;16.90;8.88;;;0.90;99.90;;;;;;5064010;28;20024;-89
2023/01/18 07:06:19;;;;;;;14.88;8.50;;;0.80;99.90;;;;;;5054708;28;20040;-87
2023/01/18 07:08:46;;;;;;;15.65;9.10;;;0.80;99.90;;;;;;5040804;28;20091;-87
2023/01/18 07:11:30;;;;;;;14.75;8.25;;;0.80;99.90;;;;;;5024830;28;20087;-87
2023/01/18 07:13:58;;;;;;;20.08;9.48;;;0.80;99.90;;;;;;5040821;28;20021;-88
2023/01/18 07:16:55;;;;;;;18.70;9.18;;;0.80;99.90;;;;;;5041695;28;20099;-87
2023/01/18 07:19:21;;;;;;;15.20;8.73;;;0.80;99.90;;;;;;5033478;28;20495;-87
2023/01/18 07:21:49;;;;;;;18.65;8.57;;;0.80;99.90;;;;;;5025461;28;20037;-87
2023/01/18 07:24:17;;;;;;;16.67;8.82;;;0.80;99.90;;;;;;5041341;28;20033;-87
2023/01/18 07:26:43;;;;;;;20.20;9.77;;;0.80;99.90;;;;;;5024656;28;20061;-86
2023/01/18 07:29:08;;;;;;;19.20;9.25;;;0.80;99.90;;;;;;5024181;28;20037;-88
2023/01/18 07:31:36;;;;;;;17.33;8.85;;;0.80;99.90;;;;;;5040836;28;20040;-87
2023/01/18 07:34:03;;;;;;;14.25;8.32;;;0.70;99.90;;;;;;5024513;28;20033;-87
2023/01/18 07:36:28;;;;;;;20.65;9.43;;;0.70;99.90;;;;;;5024031;28;20052;-87
2023/01/18 07:38:54;;;;;;;16.38;8.15;;;0.70;99.90;;;;;;5007472;28;20033;-87
2023/01/18 07:41:21;;;;;;;14.70;8.32;;;0.70;99.90;;;;;;5036712;28;20120;-87
2023/01/18 07:43:48;;;;;;;17.95;9.13;;;0.70;99.90;;;;;;5018779;28;20047;-88
2023/01/18 07:46:22;;;;;;;17.52;9.00;;;0.70;99.90;;;;;;5036880;28;20037;-88
2023/01/18 07:48:48;;;;;;;16.52;8.65;;;0.70;99.90;;;;;;5038161;28;20048;-87
2023/01/18 07:51:14;;;;;;;18.65;9.25;;;0.70;99.90;;;;;;5036666;28;20033;-89
2023/01/18 07:53:41;;;;;;;16.98;8.95;;;0.70;99.90;;;;;;5044437;28;20037;-91
2023/01/18 07:56:10;;;;;;;15.40;9.57;;;0.70;99.90;;;;;;5039925;28;20040;-87
2023/01/18 07:58:36;;;;;;;16.63;9.57;;;0.70;99.90;;;;;;5040803;28;20090;-91
2023/01/18 08:01:08;;;;;;;22.10;10.68;;;0.70;99.90;;;;;;5032511;28;20057;-87
2023/01/18 08:03:35;;;;;;;18.67;9.80;;;0.80;99.90;;;;;;5008176;28;20149;-89
2023/01/18 08:06:06;;;;;;;17.65;9.05;;;0.70;99.90;;;;;;5006793;28;20116;-90
2023/01/18 08:08:32;;;;;;;;;;;0.70;99.90;;;;;;5005500;28;20033;-88
2023/01/18 08:10:59;;;;;;;20.58;9.63;;;0.80;99.90;;;;;;4999505;28;19976;-89
2023/01/18 08:13:26;;;;;;;15.75;8.68;;;0.80;99.90;;;;;;5016962;28;20034;-90
2023/01/18 08:15:53;;;;;;;14.40;8.45;;;0.70;99.90;;;;;;4999114;28;20065;-89
2023/01/18 08:18:27;;;;;;;18.10;10.00;;;0.70;99.90;;;;;;4998718;28;20037;-89
2023/01/18 08:20:52;;;;;;;14.57;8.73;;;0.80;99.90;;;;;;5017472;28;20038;-89
2023/01/18 08:23:18;;;;;;;16.55;8.00;;;0.70;99.90;;;;;;4983518;28;20076;-88
2023/01/18 08:25:46;;;;;;;20.95;10.40;;;0.70;99.90;;;;;;5016237;28;20100;-88
2023/01/18 08:28:12;;;;;;;17.10;9.30;;;0.70;99.90;;;;;;5037289;22;21293;-88
2023/01/18 08:30:40;;;;;;;18.52;8.45;;;0.80;99.90;;;;;;5024943;28;20088;-90
2023/01/18 08:33:07;;;;;;;15.65;8.73;;;0.70;99.90;;;;;;5019968;28;20088;-90
2023/01/18 08:35:39;;;;;;;17.17;8.93;;;0.70;99.90;;;;;;5004399;28;20132;-90
2023/01/18 08:38:05;;;;;;;18.00;9.18;;;0.70;99.90;;;;;;5019370;28;20037;-90
2023/01/18 08:40:31;;;;;;;14.68;8.00;;;0.70;99.90;;;;;;5019260;28;20041;-88
2023/01/18 08:42:58;;;;;;;18.50;8.50;;;0.70;99.90;;;;;;5019171;28;20493;-88
2023/01/18 08:45:24;;;;;;;15.88;8.43;;;0.60;99.90;;;;;;5018818;28;20405;-88
2023/01/18 08:48:05;;;;;;;16.67;8.90;;;0.60;99.90;;;;;;5004147;28;20061;-88
2023/01/18 08:50:33;;;;;;;14.60;8.10;;;0.60;99.90;;;;;;5041174;28;20086;-88
2023/01/18 08:52:59;;;;;;;15.75;8.27;;;0.60;99.90;;;;;;5059418;28;20022;-88
2023/01/18 08:55:26;;;;;;;14.23;8.50;;;0.60;99.90;;;;;;5025689;28;20036;-87
2023/01/18 08:57:58;;;;;;;16.95;9.30;;;0.60;99.90;;;;;;5018494;28;20033;-88
2023/01/18 09:00:28;;;;;;;17.20;8.10;;;0.60;99.90;;;;;;5003198;28;20455;-87
2023/01/18 09:02:54;;;;;;;16.20;9.50;;;0.70;99.90;;;;;;5023544;28;20034;-89
2023/01/18 09:05:20;;;;;;;16.52;8.95;;;0.70;99.90;;;;;;5023635;28;20786;-88
2023/01/18 09:07:46;;;;;;;13.68;7.93;;;0.70;99.90;;;;;;5004379;28;20042;-89
2023/01/18 09:10:12;;;;;;;17.58;9.48;;;0.80;99.90;;;;;;5018861;28;20033;-88
2023/01/18 09:12:39;;;;;;;18.90;8.90;;;0.90;99.90;;;;;;5018921;28;20543;-89
2023/01/18 09:15:05;;;;;;;17.00;9.18;;;0.80;99.90;;;;;;5002863;28;20493;-89
2023/01/18 09:17:30;;;;;;;16.45;9.23;;;0.80;99.90;;;;;;5002660;28;20488;-89
2023/01/18 09:19:56;;;;;;;17.55;8.90;;;0.90;99.90;;;;;;5018812;28;20029;-89
2023/01/18 09:22:23;;;;;;;16.65;9.63;;;0.90;99.90;;;;;;5018584;28;20041;-89
2023/01/18 09:24:49;;;;;;;15.27;8.65;;;1.00;99.90;;;;;;5019031;28;20033;-90
2023/01/18 09:27:15;;;;;;;17.67;9.15;;;1.00;99.90;;;;;;5002285;28;20041;-89
2023/01/18 09:29:41;;;;;;;18.13;9.38;;;1.10;99.90;;;;;;5009544;28;20060;-90
2023/01/18 09:32:07;;;;;;;17.95;10.45;;;1.20;99.90;;;;;;5018981;28;20070;-90
2023/01/18 09:34:33;;;;;;;20.48;9.60;;;1.20;99.90;;;;;;5019053;28;20038;-90
2023/01/18 09:37:00;;;;;;;20.35;9.13;;;1.20;99.90;;;;;;5035100;28;20449;-89
2023/01/18 09:39:26;;;;;;;14.02;8.63;;;1.30;99.90;;;;;;5019200;28;20097;-90
2023/01/18 09:41:55;;;;;;;14.25;8.75;;;1.30;99.90;;;;;;5035267;28;20219;-91
2023/01/18 09:44:37;;;;;;;20.27;9.30;;;1.40;99.90;;;;;;5036014;28;20500;-89
2023/01/18 09:47:22;;;;;;;17.27;8.93;;;1.40;99.90;;;;;;5034990;28;20033;-91
2023/01/18 09:49:53;;;;;;;18.70;9.23;;;1.40;99.90;;;;;;5034659;28;20030;-89
2023/01/18 09:52:22;;;;;;;;;;;1.50;99.90;;;;;;5034718;28;20037;-89
2023/01/18 09:55:04;;;;;;;19.83;8.57;;;1.50;99.90;;;;;;5034579;28;20302;-90
2023/01/18 09:57:43;;;;;;;14.80;8.02;;;1.60;99.90;;;;;;5034579;28;20136;-91
2023/01/18 10:00:27;;;;;;;16.85;8.35;;;1.60;99.90;;;;;;5034312;28;20037;-91
2023/01/18 10:02:59;;;;;;;16.33;7.90;;;1.70;99.90;;;;;;5034466;28;20129;-90
2023/01/18 10:05:30;;;;;;;16.33;9.05;;;1.80;99.90;;;;;;5033901;28;20132;-89
2023/01/18 10:08:03;;;;;;;16.35;8.38;;;1.80;99.90;;;;;;5034072;28;20022;-89
2023/01/18 10:10:38;;;;;;;13.88;7.97;;;1.90;99.90;;;;;;5033137;28;20029;-89
2023/01/18 10:13:19;;;;;;;14.10;8.07;;;1.90;99.90;;;;;;5033632;28;20099;-89
2023/01/18 10:15:45;;;;;;;13.80;7.75;;;2.00;99.90;;;;;;5033814;28;20053;-89
2023/01/18 10:18:14;;;;;;;14.18;7.88;;;2.10;99.90;;;;;;5034104;28;20038;-89
2023/01/18 10:20:40;;;;;;;16.38;7.85;;;2.10;99.90;;;;;;5034044;28;20033;-89
2023/01/18 10:23:14;;;;;;;12.10;7.50;;;2.10;99.90;;;;;;5034292;28;20034;-90
2023/01/18 10:25:52;;;;;;;17.13;8.48;;;2.20;99.90;;;;;;5034072;28;20127;-89
2023/01/18 10:28:38;;;;;;;14.07;7.72;;;2.20;99.90;;;;;;5039376;28;20109;-89
2023/01/18 10:31:04;;;;;;;14.73;8.30;;;2.30;99.90;;;;;;5039924;28;20073;-89
2023/01/18 10:33:34;;;;;;;12.57;7.97;;;2.30;99.90;;;;;;5038807;28;20021;-89
2023/01/18 10:36:16;;;;;;;14.45;7.97;;;2.40;99.90;;;;;;5040238;28;20045;-87
2023/01/18 10:38:43;;;;;;;15.23;7.93;;;2.40;99.90;;;;;;5040263;28;20045;-91
2023/01/18 10:41:37;;;;;;;13.05;7.18;;;2.50;99.90;;;;;;5039142;28;20033;-89
2023/01/18 10:44:09;;;;;;;12.50;7.35;;;2.50;99.90;;;;;;5032066;28;20050;-90
2023/01/18 10:46:38;;;;;;;13.98;7.72;;;2.50;99.90;;;;;;5010752;28;20042;-90
2023/01/18 10:49:29;;;;;;;13.68;7.93;;;2.60;99.90;;;;;;4996694;28;20034;-93
2023/01/18 10:51:54;;;;;;;;;;;2.60;99.90;;;;;;4998160;28;20053;-93
2023/01/18 10:54:26;;;;;;;13.68;7.45;;;2.70;99.90;;;;;;4991970;28;19913;-91
2023/01/18 10:57:03;;;;;;;12.48;6.93;;;2.70;99.90;;;;;;4999150;28;20136;-91
2023/01/18 10:59:38;;;;;;;13.50;7.22;;;2.80;99.90;;;;;;5018411;28;20033;-92
2023/01/18 11:02:12;;;;;;;13.27;6.82;;;2.80;99.90;;;;;;5002305;28;20042;-90
2023/01/18 11:04:40;;;;;;;11.98;6.50;;;2.90;99.90;;;;;;4997165;28;20034;-91
2023/01/18 11:07:07;;;;;;;12.25;6.55;;;2.90;99.90;;;;;;4982535;28;20049;-89
2023/01/18 11:09:54;;;;;;;12.95;6.85;;;3.00;99.90;;;;;;4966001;28;20473;-89
2023/01/18 11:12:36;;;;;;;14.32;6.68;;;3.00;99.90;;;;;;4999175;28;20119;-90
2023/01/18 11:15:23;;;;;;;13.88;7.00;;;3.10;99.90;;;;;;5003376;28;20037;-89
2023/01/18 11:17:53;;;;;;;20.15;9.73;;;3.10;99.90;;;;;;5020934;28;20038;-89
2023/01/18 11:20:35;;;;;;;13.85;6.05;;;3.20;99.90;;;;;;5021010;28;20026;-89
2023/01/18 11:23:24;;;;;;;14.63;6.28;;;3.30;99.90;;;;;;5005384;28;20044;-89
2023/01/18 11:26:06;;;;;;;10.73;6.85;;;3.30;99.90;;;;;;5001015;28;20517;-89
2023/01/18 11:28:53;;;;;;;12.70;6.07;;;3.40;99.90;;;;;;5001086;28;20149;-90
2023/01/18 11:31:21;;;;;;;13.77;7.22;;;3.50;99.90;;;;;;5001049;28;20042;-88
2023/01/18 11:33:56;;;;;;;12.68;6.90;;;3.50;99.90;;;;;;5000789;28;20026;-89
2023/01/18 11:36:43;;;;;;;11.27;6.22;;;3.60;99.90;;;;;;5000038;28;20061;-89
2023/01/18 11:39:28;;;;;;;13.48;6.88;;;3.70;99.90;;;;;;4984652;28;20034;-90
2023/01/18 11:42:19;;;;;;;16.30;7.07;;;3.80;99.90;;;;;;5018659;28;20030;-89
2023/01/18 11:44:59;;;;;;;11.82;6.22;;;3.90;99.90;;;;;;5017864;28;20486;-88
2023/01/18 11:47:35;;;;;;;10.75;6.38;;;4.00;99.90;;;;;;5000386;28;20104;-88
2023/01/18 11:50:04;;;;;;;10.73;7.00;;;4.00;99.90;;;;;;5018193;28;20117;-90
2023/01/18 11:52:53;;;;;;;11.98;6.63;;;4.10;99.90;;;;;;5001233;28;20066;-88
2023/01/18 11:55:30;;;;;;;11.23;6.28;;;4.20;99.90;;;;;;5019416;28;20038;-88
2023/01/18 11:57:58;;;;;;;10.30;6.32;;;4.30;99.90;;;;;;5019450;28;20593;-89
2023/01/18 12:00:27;;;;;;;11.00;6.47;;;4.30;99.90;;;;;;5018823;28;20030;-89
2023/01/18 12:03:14;;;;;;;11.85;6.57;;;4.40;99.90;;;;;;5002451;28;20460;-88
2023/01/18 12:05:53;;;;;;;13.75;6.93;;;4.40;99.90;;;;;;5016384;28;20060;-88
2023/01/18 12:08:50;;;;;;;9.27;5.75;;;4.50;99.90;;;;;;5015320;28;20029;-89
2023/01/18 12:11:28;;;;;;;12.57;6.43;;;4.60;99.90;;;;;;4978667;28;20041;-89
2023/01/18 12:14:04;;;;;;;12.23;6.15;;;4.70;99.90;;;;;;5016060;28;20025;-88
2023/01/18 12:17:01;;;;;;;17.48;6.80;;;4.70;99.90;;;;;;5016328;28;20548;-89
2023/01/18 12:20:01;;;;;;;11.27;5.95;;;4.80;99.90;;;;;;5019887;28;20030;-89
2023/01/18 12:23:02;;;;;;;10.85;6.80;;;4.80;99.90;;;;;;5012981;28;20041;-88
2023/01/18 12:25:51;;;;;;;16.13;5.57;;;4.90;99.90;;;;;;5019001;28;20389;-88
2023/01/18 12:28:56;;;;;;;14.80;7.53;;;4.90;99.90;;;;;;5028801;28;20034;-88
2023/01/18 12:31:44;;;;;;;12.07;6.75;;;5.00;99.90;;;;;;5027548;28;20042;-89
2023/01/18 12:34:14;;;;;;;10.02;5.43;;;5.10;99.90;;;;;;5021768;28;20040;-90
2023/01/18 12:37:14;;;;;;;10.07;5.97;;;5.20;99.90;;;;;;5020178;28;20056;-93
2023/01/18 12:40:16;;;;;;;9.73;5.30;;;5.20;99.90;;;;;;5017987;28;20037;-89
2023/01/18 12:43:06;;;;;;;11.15;5.65;;;5.30;99.90;;;;;;5028738;28;20034;-88
2023/01/18 12:45:40;;;;;;;11.17;4.93;;;5.40;99.90;;;;;;5033596;28;20037;-88
2023/01/18 12:48:21;;;;;;;11.95;5.82;;;5.40;99.90;;;;;;5018832;28;20271;-89
2023/01/18 12:50:49;;;;;;;10.60;5.18;;;5.50;99.90;;;;;;5018451;28;20034;-90
2023/01/18 12:53:27;;;;;;;11.25;5.53;;;5.60;99.90;;;;;;5017888;28;20041;-88
2023/01/18 12:55:54;;;;;;;10.77;4.38;;;5.60;99.90;;;;;;5017528;28;20041;-87
2023/01/18 12:58:23;;;;;;;9.05;4.63;;;5.70;99.90;;;;;;5035247;28;20029;-87
2023/01/18 13:00:58;;;;;;;10.18;4.95;;;5.70;99.90;;;;;;5035636;28;20091;-89
2023/01/18 13:03:30;;;;;;;11.52;5.05;;;5.80;99.90;;;;;;5017914;28;20044;-88
2023/01/18 13:06:00;;;;;;;8.18;4.53;;;5.90;99.90;;;;;;5018490;28;20042;-89
2023/01/18 13:08:41;;;;;;;10.85;4.88;;;5.90;99.90;;;;;;5018309;28;20496;-89
2023/01/18 13:11:24;;;;;;;8.38;4.47;;;5.90;99.90;;;;;;5018391;28;20048;-89
2023/01/18 13:14:04;;;;;;;8.35;4.32;;;6.00;99.90;;;;;;5017003;28;20038;-90
2023/01/18 13:16:43;;;;;;;10.00;4.72;;;6.00;99.90;;;;;;5015471;28;20046;-89
2023/01/18 13:19:13;;;;;;;11.30;4.70;;;6.00;99.90;;;;;;5035009;28;20025;-90
2023/01/18 13:21:58;;;;;;;9.20;4.68;;;6.00;99.90;;;;;;5032565;28;20056;-89
2023/01/18 13:24:45;;;;;;;9.60;5.20;;;6.00;99.90;;;;;;5032525;28;20029;-91
2023/01/18 13:27:15;;;;;;;7.90;4.57;;;6.00;99.90;;;;;;5029101;28;20119;-88
2023/01/18 13:29:42;;;;;;;9.30;5.18;;;6.00;99.90;;;;;;5022071;28;20037;-88
2023/01/18 13:32:26;;;;;;;14.95;5.68;;;6.10;99.90;;;;;;5029521;28;20063;-89
2023/01/18 13:35:01;;;;;;;9.73;4.82;;;6.00;99.90;;;;;;5038361;28;20099;-87
2023/01/18 13:37:50;;;;;;;9.68;4.88;;;6.10;99.90;;;;;;5055405;28;20108;-87
2023/01/18 13:40:33;;;;;;;8.75;4.22;;;6.20;99.90;;;;;;5045268;28;20033;-88
2023/01/18 13:42:59;;;;;;;8.23;4.38;;;6.20;99.90;;;;;;5061323;28;20025;-88
2023/01/18 13:45:27;;;;;;;7.55;4.40;;;6.20;99.90;;;;;;5044390;28;20036;-87